Time;durP1;ratioP1;P1;durP2;ratioP2;P2;SDS_P1;SDS_P2;PMS_P1;PMS_P2;Temp;Humidity;BMP_temperature;BMP_pressure;BME280_temperature;BME280_humidity;BME280_pressure;Samples;Min_cycle;Max_cycle;Signal;HPM_P1;HPM_P2
2023/05/11 00:00:38;;;;;;;13.95;9.75;;;;;;;14.44;76.04;101517.81;7390057;19;20014;-57
2023/05/11 00:03:06;;;;;;;13.57;9.30;;;;;;;14.36;76.24;101516.59;7391917;19;20014;-57
2023/05/11 00:05:33;;;;;;;14.63;10.40;;;;;;;14.34;76.15;101515.84;7390782;19;20019;-57
2023/05/11 00:08:00;;;;;;;15.48;11.05;;;;;;;14.33;76.09;101514.16;7390780;19;20142;-57
2023/05/11 00:10:28;;;;;;;15.63;10.85;;;;;;;14.31;76.09;101510.78;7391094;19;20011;-57
2023/05/11 00:12:55;;;;;;;17.20;11.52;;;;;;;14.24;76.09;101512.22;7391310;19;20018;-56
2023/05/11 00:15:22;;;;;;;14.98;10.95;;;;;;;14.25;76.24;101511.25;7389528;19;20026;-57
2023/05/11 00:17:50;;;;;;;15.80;11.13;;;;;;;14.26;76.10;101515.59;7388974;19;20078;-56
2023/05/11 00:20:17;;;;;;;15.43;10.52;;;;;;;14.28;76.02;101521.66;7391001;19;20082;-56
2023/05/11 00:22:44;;;;;;;14.68;10.40;;;;;;;14.26;75.99;101517.41;7390795;19;20047;-56
2023/05/11 00:25:12;;;;;;;14.15;9.98;;;;;;;14.25;75.91;101523.72;7390951;19;20499;-56
2023/05/11 00:27:44;;;;;;;16.23;11.00;;;;;;;14.12;76.47;101523.81;7389912;19;20026;-57
2023/05/11 00:30:13;;;;;;;16.20;11.20;;;;;;;14.05;76.40;101520.78;7390570;19;20035;-57
2023/05/11 00:32:43;;;;;;;17.98;12.68;;;;;;;14.02;76.60;101521.00;7391107;19;20129;-56
2023/05/11 00:35:11;;;;;;;20.38;14.35;;;;;;;14.04;76.21;101518.19;7389704;19;20022;-56
2023/05/11 00:37:39;;;;;;;26.88;17.00;;;;;;;14.00;76.36;101522.06;7389557;19;20023;-56
2023/05/11 00:40:06;;;;;;;28.20;17.05;;;;;;;13.98;76.43;101519.53;7389043;19;20086;-56
2023/05/11 00:42:33;;;;;;;25.08;15.95;;;;;;;13.93;76.68;101516.38;7391377;19;20043;-56
2023/05/11 00:45:01;;;;;;;27.17;17.17;;;;;;;13.99;76.34;101510.56;7388142;19;20368;-56
2023/05/11 00:47:28;;;;;;;27.40;17.30;;;;;;;14.04;76.38;101510.22;7389938;19;20559;-56
2023/05/11 00:49:56;;;;;;;32.47;19.05;;;;;;;13.94;76.64;101509.22;7389484;19;20097;-56
2023/05/11 00:52:24;;;;;;;31.13;18.73;;;;;;;14.03;76.65;101516.50;7389587;19;20015;-55
2023/05/11 00:54:51;;;;;;;31.63;19.23;;;;;;;14.09;76.52;101516.06;7389880;19;20031;-55
2023/05/11 00:57:18;;;;;;;33.65;20.95;;;;;;;14.02;76.82;101509.50;7390238;19;20365;-55
2023/05/11 00:59:46;;;;;;;34.53;21.27;;;;;;;14.05;76.95;101509.28;7386638;19;20018;-56
2023/05/11 01:02:13;;;;;;;33.67;20.77;;;;;;;14.08;77.11;101503.69;7390372;19;20052;-56
2023/05/11 01:04:40;;;;;;;37.35;22.33;;;;;;;13.99;77.35;101510.56;7393913;19;20508;-57
2023/05/11 01:07:18;;;;;;;40.38;23.27;;;;;;;13.99;77.29;101509.72;7396836;19;20030;-57
2023/05/11 01:10:07;;;;;;;39.60;23.45;;;;;;;14.04;77.36;101518.19;7397127;19;20018;-57
2023/05/11 01:13:11;;;;;;;40.95;24.23;;;;;;;14.01;77.45;101515.78;7397946;19;20026;-56
2023/05/11 01:15:53;;;;;;;43.75;24.27;;;;;;;14.00;77.46;101508.75;7396341;19;20086;-57
2023/05/11 01:18:49;;;;;;;40.07;23.93;;;;;;;14.01;77.48;101507.81;7395359;19;20038;-57
2023/05/11 01:21:17;;;;;;;40.03;22.70;;;;;;;13.92;77.86;101516.47;7396763;19;20031;-56
2023/05/11 01:24:23;;;;;;;41.45;23.30;;;;;;;14.04;77.66;101511.09;7395142;19;20029;-56
2023/05/11 01:27:11;;;;;;;41.90;23.98;;;;;;;14.01;77.80;101507.81;7395748;19;20014;-57
2023/05/11 01:29:38;;;;;;;41.60;24.23;;;;;;;13.90;78.16;101506.81;7392122;19;20491;-57
2023/05/11 01:32:22;;;;;;;40.30;24.55;;;;;;;14.00;77.64;101509.59;7395557;19;20025;-58
2023/05/11 01:34:57;;;;;;;36.78;23.27;;;;;;;14.02;77.38;101509.50;7393954;19;20021;-57
2023/05/11 01:37:26;;;;;;;33.60;21.77;;;;;;;13.97;77.68;101517.00;7394331;19;20022;-55
2023/05/11 01:40:01;;;;;;;35.55;21.65;;;;;;;14.08;77.34;101522.31;7395908;19;20021;-56
2023/05/11 01:42:40;;;;;;;34.88;20.92;;;;;;;14.07;77.14;101515.31;7395090;19;20029;-57
2023/05/11 01:45:10;;;;;;;34.70;21.33;;;;;;;13.99;77.40;101529.22;7396770;19;20026;-57
2023/05/11 01:47:40;;;;;;;33.63;21.70;;;;;;;14.00;77.02;101522.06;7394011;19;20018;-58
2023/05/11 01:50:08;;;;;;;30.15;20.50;;;;;;;13.97;77.02;101531.16;7396291;19;20414;-57
2023/05/11 01:52:37;;;;;;;31.00;20.95;;;;;;;13.93;77.17;101531.47;7395687;19;20014;-56
2023/05/11 01:55:06;;;;;;;30.73;20.83;;;;;;;13.96;76.96;101536.59;7395863;19;20022;-57
2023/05/11 01:57:37;;;;;;;30.17;20.45;;;;;;;13.95;77.09;101526.91;7395032;19;20384;-57
2023/05/11 02:00:07;;;;;;;30.48;20.63;;;;;;;13.92;76.83;101535.97;7395695;19;20018;-57
2023/05/11 02:02:35;;;;;;;30.90;20.67;;;;;;;13.94;76.75;101534.03;7396080;19;20022;-57
2023/05/11 02:05:05;;;;;;;28.25;18.42;;;;;;;13.99;76.46;101536.34;7395694;19;20381;-55
2023/05/11 02:07:35;;;;;;;30.45;20.42;;;;;;;13.84;77.03;101535.69;7394769;19;20023;-56
2023/05/11 02:10:02;;;;;;;30.38;20.58;;;;;;;13.73;77.66;101544.47;7393428;19;20014;-56
2023/05/11 02:12:32;;;;;;;29.15;19.50;;;;;;;13.81;77.78;101547.44;7395690;19;20018;-56
2023/05/11 02:15:02;;;;;;;31.55;20.95;;;;;;;13.85;77.31;101545.38;7393211;19;20402;-56
2023/05/11 02:17:29;;;;;;;28.58;19.90;;;;;;;13.96;76.92;101547.22;7393866;19;20019;-57
2023/05/11 02:20:00;;;;;;;29.58;19.48;;;;;;;13.95;76.69;101548.22;7394640;19;20021;-56
2023/05/11 02:22:29;;;;;;;30.75;20.40;;;;;;;13.92;76.78;101541.28;7395681;19;20123;-56
2023/05/11 02:24:56;;;;;;;28.85;20.13;;;;;;;13.89;76.76;101550.38;7394299;19;20019;-57
2023/05/11 02:27:23;;;;;;;27.70;18.77;;;;;;;13.84;76.69;101549.84;7393135;19;20074;-57
2023/05/11 02:29:51;;;;;;;30.45;20.13;;;;;;;13.84;76.98;101549.84;7394064;19;20015;-57
2023/05/11 02:32:21;;;;;;;28.25;19.35;;;;;;;13.81;77.29;101547.44;7394974;19;20121;-56
2023/05/11 02:35:00;;;;;;;26.48;18.48;;;;;;;13.92;76.68;101557.25;7394439;19;20043;-56
2023/05/11 02:37:29;;;;;;;26.02;18.40;;;;;;;13.87;76.81;101557.63;7394550;19;20074;-56
2023/05/11 02:40:07;;;;;;;26.33;18.20;;;;;;;13.93;76.52;101559.00;7393778;19;20035;-57
2023/05/11 02:42:37;;;;;;;25.13;17.85;;;;;;;13.80;77.09;101552.84;7393202;19;20022;-56
2023/05/11 02:45:08;;;;;;;25.30;18.08;;;;;;;13.72;77.45;101555.25;7392813;19;20026;-56
2023/05/11 02:47:38;;;;;;;25.13;17.92;;;;;;;13.75;77.41;101561.19;7394642;19;20041;-57
2023/05/11 02:50:07;;;;;;;24.70;16.88;;;;;;;13.82;77.18;101565.09;7394062;19;20043;-57
2023/05/11 02:52:38;;;;;;;25.40;17.70;;;;;;;13.84;76.94;101557.00;7394310;19;20023;-57
2023/05/11 02:55:07;;;;;;;23.75;16.92;;;;;;;13.81;77.18;101557.22;7394243;19;20709;-55
2023/05/11 02:57:34;;;;;;;24.60;17.50;;;;;;;13.81;77.06;101562.53;7394532;19;20031;-57
2023/05/11 03:00:02;;;;;;;25.15;17.60;;;;;;;13.80;77.12;101561.69;7391960;19;20022;-57
2023/05/11 03:02:29;;;;;;;25.45;17.80;;;;;;;13.81;77.03;101567.88;7394147;19;20026;-57
2023/05/11 03:04:57;;;;;;;25.27;16.83;;;;;;;13.83;76.83;101561.47;7394130;19;20022;-56
2023/05/11 03:07:24;;;;;;;26.05;18.33;;;;;;;13.76;77.35;101570.03;7392580;19;20018;-57
2023/05/11 03:09:52;;;;;;;26.63;19.38;;;;;;;13.75;77.16;101571.84;7393318;19;20363;-56
2023/05/11 03:12:20;;;;;;;26.33;18.27;;;;;;;13.73;77.33;101564.94;7393700;19;20018;-56
2023/05/11 03:14:48;;;;;;;26.33;18.38;;;;;;;13.76;77.32;101570.03;7391730;19;20012;-55
2023/05/11 03:17:16;;;;;;;24.48;17.15;;;;;;;13.72;77.15;101566.75;7391898;19;20405;-56
2023/05/11 03:19:44;;;;;;;24.55;16.55;;;;;;;13.70;77.31;101557.16;7392492;19;20018;-55
2023/05/11 03:22:12;;;;;;;23.27;16.38;;;;;;;13.75;77.12;101571.84;7389460;19;20021;-55
2023/05/11 03:24:40;;;;;;;23.48;16.42;;;;;;;13.79;77.00;101572.47;7391848;19;20034;-56
2023/05/11 03:27:08;;;;;;;22.60;15.45;;;;;;;13.73;76.99;101564.94;7393282;19;20035;-56
2023/05/11 03:29:37;;;;;;;20.08;14.43;;;;;;;13.70;77.04;101563.38;7390750;19;20017;-56
2023/05/11 03:32:04;;;;;;;19.20;14.45;;;;;;;13.71;76.89;101570.38;7393981;19;20078;-55
2023/05/11 03:34:31;;;;;;;19.77;14.13;;;;;;;13.71;77.17;101565.06;7392493;19;20018;-56
2023/05/11 03:36:59;;;;;;;21.58;14.85;;;;;;;13.74;76.79;101566.66;7392501;19;20019;-56
2023/05/11 03:39:30;;;;;;;21.52;15.05;;;;;;;13.68;76.82;101569.75;7391876;19;20010;-54
2023/05/11 03:41:59;;;;;;;19.33;14.27;;;;;;;13.67;76.96;101566.25;7392560;19;20043;-56
2023/05/11 03:44:27;;;;;;;21.55;15.23;;;;;;;13.72;76.85;101566.75;7391920;19;20495;-56
2023/05/11 03:46:56;;;;;;;22.48;15.30;;;;;;;13.73;76.68;101565.78;7390816;19;20085;-56
2023/05/11 03:49:24;;;;;;;21.30;15.23;;;;;;;13.75;76.69;101571.84;7389846;19;20022;-56
2023/05/11 03:51:52;;;;;;;21.30;16.38;;;;;;;13.71;76.93;101558.88;7390515;19;20036;-56
2023/05/11 03:54:19;;;;;;;22.67;16.13;;;;;;;13.73;76.70;101571.09;7391690;19;20022;-56
2023/05/11 03:56:46;;;;;;;22.70;16.55;;;;;;;13.76;76.67;101567.38;7390530;19;20039;-54
2023/05/11 03:59:15;;;;;;;23.42;16.50;;;;;;;13.63;76.96;101568.28;7390765;19;20349;-56
2023/05/11 04:01:42;;;;;;;23.35;16.85;;;;;;;13.59;77.41;101573.94;7390326;19;20018;-56
2023/05/11 04:04:10;;;;;;;23.70;17.15;;;;;;;13.56;77.42;101569.69;7391786;19;20014;-56
2023/05/11 04:06:38;;;;;;;22.08;16.42;;;;;;;13.53;77.69;101569.91;7391325;19;20048;-56
2023/05/11 04:09:05;;;;;;;22.13;15.60;;;;;;;13.51;77.28;101563.00;7389774;19;20018;-55
2023/05/11 04:11:35;;;;;;;21.30;15.65;;;;;;;13.56;77.18;101572.34;7391422;19;20011;-56
2023/05/11 04:14:03;;;;;;;21.63;16.05;;;;;;;13.58;77.20;101574.88;7391941;19;20022;-56
2023/05/11 04:16:30;;;;;;;20.38;14.95;;;;;;;13.50;77.63;101566.63;7389758;19;20045;-56
2023/05/11 04:18:57;;;;;;;21.40;15.75;;;;;;;13.57;77.33;101578.50;7387140;19;20019;-55
2023/05/11 04:21:24;;;;;;;21.52;15.02;;;;;;;13.58;76.99;101570.44;7390942;19;20021;-56
2023/05/11 04:23:51;;;;;;;21.00;14.90;;;;;;;13.56;77.15;101575.00;7390815;19;20022;-57
2023/05/11 04:26:19;;;;;;;20.33;14.70;;;;;;;13.55;77.02;101573.31;7390431;19;20026;-56
2023/05/11 04:28:46;;;;;;;19.80;14.43;;;;;;;13.56;76.95;101572.34;7388641;19;20508;-56
2023/05/11 04:31:13;;;;;;;20.55;15.05;;;;;;;13.57;77.08;101568.72;7390745;19;20022;-54
2023/05/11 04:33:40;;;;;;;22.17;16.00;;;;;;;13.59;76.82;101580.13;7390740;19;20031;-56
2023/05/11 04:36:08;;;;;;;21.42;15.98;;;;;;;13.54;76.95;101570.75;7390154;19;20082;-55
2023/05/11 04:38:35;;;;;;;21.60;15.20;;;;;;;13.53;77.13;101569.06;7386679;19;20097;-55
2023/05/11 04:41:05;;;;;;;20.27;15.07;;;;;;;13.47;77.59;101577.47;7390407;19;20034;-56
2023/05/11 04:43:33;;;;;;;22.00;15.43;;;;;;;13.60;77.04;101576.47;7388557;19;20018;-55
2023/05/11 04:46:00;;;;;;;20.52;14.60;;;;;;;13.63;76.61;101578.09;7388666;19;20022;-56
2023/05/11 04:48:27;;;;;;;19.83;14.38;;;;;;;13.62;76.55;101579.00;7387065;19;20015;-56
2023/05/11 04:50:54;;;;;;;20.23;15.07;;;;;;;13.60;76.67;101575.63;7388543;19;20023;-56
2023/05/11 04:53:22;;;;;;;20.92;15.73;;;;;;;13.49;77.22;101578.22;7388382;19;20519;-56
2023/05/11 04:55:49;;;;;;;22.35;16.42;;;;;;;13.51;77.00;101574.50;7389833;19;20022;-56
2023/05/11 04:58:16;;;;;;;22.23;15.85;;;;;;;13.53;76.85;101577.88;7389303;19;20377;-56
2023/05/11 05:00:43;;;;;;;22.60;16.50;;;;;;;13.53;77.03;101577.03;7388209;19;20014;-57
2023/05/11 05:03:10;;;;;;;20.95;15.60;;;;;;;13.50;77.11;101582.56;7390029;19;20108;-57
2023/05/11 05:05:37;;;;;;;22.25;16.42;;;;;;;13.52;77.19;101581.53;7389327;19;20014;-56
2023/05/11 05:08:04;;;;;;;18.00;13.65;;;;;;;13.56;76.89;101584.81;7389218;19;20120;-56
2023/05/11 05:10:31;;;;;;;19.20;13.85;;;;;;;13.50;76.95;101582.56;7389445;19;20019;-56
2023/05/11 05:12:58;;;;;;;19.50;13.60;;;;;;;13.55;76.52;101588.44;7389986;19;20503;-56
2023/05/11 05:15:25;;;;;;;18.15;13.23;;;;;;;13.57;76.74;101586.50;7388744;19;20043;-56
2023/05/11 05:17:52;;;;;;;20.13;14.27;;;;;;;13.61;76.31;101595.97;7388998;19;20491;-56
2023/05/11 05:20:19;;;;;;;19.70;13.68;;;;;;;13.63;76.38;101591.38;7388770;19;20399;-56
2023/05/11 05:22:46;;;;;;;19.33;13.60;;;;;;;13.64;76.43;101593.06;7389731;19;20014;-56
2023/05/11 05:25:14;;;;;;;19.00;14.02;;;;;;;13.67;76.27;101592.84;7389140;19;20139;-55
2023/05/11 05:27:41;;;;;;;18.48;12.95;;;;;;;13.68;76.25;101599.88;7385352;19;20019;-55
2023/05/11 05:30:08;;;;;;;18.48;13.38;;;;;;;13.65;76.24;101598.28;7385454;19;20364;-56
2023/05/11 05:32:35;;;;;;;17.42;12.30;;;;;;;13.64;76.03;101596.59;7389453;19;20010;-56
2023/05/11 05:35:02;;;;;;;18.50;11.93;;;;;;;13.73;75.80;101599.53;7389045;19;20027;-56
2023/05/11 05:37:29;;;;;;;17.38;12.32;;;;;;;13.66;75.68;101604.47;7388311;19;20019;-56
2023/05/11 05:39:56;;;;;;;18.67;13.32;;;;;;;13.63;75.88;101605.53;7388779;19;20022;-56
2023/05/11 05:42:23;;;;;;;18.80;12.48;;;;;;;13.69;75.74;101612.22;7389291;19;20014;-55
2023/05/11 05:44:51;;;;;;;19.58;13.13;;;;;;;13.70;75.85;101610.41;7386931;19;20021;-55
2023/05/11 05:47:18;;;;;;;21.45;14.15;;;;;;;13.70;75.67;101621.91;7380154;19;20102;-56
2023/05/11 05:49:45;;;;;;;21.17;14.05;;;;;;;13.65;76.07;101621.38;7386963;19;20022;-55
2023/05/11 05:52:12;;;;;;;21.25;13.98;;;;;;;13.67;75.87;101624.81;7390197;19;20018;-57
2023/05/11 05:54:39;;;;;;;20.73;13.80;;;;;;;13.64;76.16;101625.88;7396086;19;20014;-57
2023/05/11 05:57:06;;;;;;;19.95;14.27;;;;;;;13.70;76.21;101631.69;7395751;19;20034;-56
2023/05/11 05:59:33;;;;;;;22.67;14.80;;;;;;;13.74;76.19;101633.19;7395805;19;20043;-57
2023/05/11 06:02:01;;;;;;;22.33;14.95;;;;;;;13.80;75.91;101628.25;7396331;19;20017;-57
2023/05/11 06:04:28;;;;;;;22.08;15.02;;;;;;;13.93;75.48;101635.34;7393821;19;20014;-57
2023/05/11 06:06:56;;;;;;;20.70;14.90;;;;;;;13.96;75.58;101638.63;7395065;19;20018;-55
2023/05/11 06:09:23;;;;;;;21.55;13.68;;;;;;;14.09;75.31;101638.59;7393569;19;20030;-56
2023/05/11 06:11:52;;;;;;;18.65;12.73;;;;;;;14.17;75.00;101641.53;7393957;19;20014;-56
2023/05/11 06:14:21;;;;;;;20.40;13.10;;;;;;;14.21;74.71;101637.66;7395520;19;20022;-55
2023/05/11 06:16:48;;;;;;;20.92;14.52;;;;;;;14.18;74.49;101643.22;7394941;19;20028;-57
2023/05/11 06:19:15;;;;;;;20.23;13.80;;;;;;;14.12;74.78;101639.22;7394802;19;20022;-57
2023/05/11 06:21:44;;;;;;;19.52;13.75;;;;;;;14.15;74.80;101638.94;7395504;19;20484;-55
2023/05/11 06:24:11;;;;;;;20.02;13.73;;;;;;;14.18;74.74;101643.22;7394518;19;20460;-55
2023/05/11 06:26:38;;;;;;;19.33;13.75;;;;;;;14.19;74.68;101638.72;7394573;19;20082;-55
2023/05/11 06:29:06;;;;;;;17.23;11.57;;;;;;;14.21;74.44;101639.47;7391103;19;20010;-55
2023/05/11 06:31:33;;;;;;;19.08;12.70;;;;;;;14.15;74.49;101640.78;7395198;19;20022;-56
2023/05/11 06:34:00;;;;;;;19.80;13.63;;;;;;;14.17;74.42;101630.03;7393211;19;20023;-55
2023/05/11 06:36:27;;;;;;;18.55;12.23;;;;;;;14.11;74.74;101636.63;7394400;19;20085;-55
2023/05/11 06:38:54;;;;;;;18.42;12.45;;;;;;;14.26;74.45;101635.50;7392133;19;20014;-57
2023/05/11 06:41:22;;;;;;;20.65;13.05;;;;;;;14.40;73.70;101634.47;7394010;19;20381;-56
2023/05/11 06:43:49;;;;;;;19.75;13.55;;;;;;;14.39;73.98;101640.75;7394374;19;20023;-56
2023/05/11 06:46:16;;;;;;;19.27;13.23;;;;;;;14.42;74.16;101645.00;7394025;19;20038;-55
2023/05/11 06:48:43;;;;;;;19.65;13.30;;;;;;;14.50;73.62;101632.84;7389985;19;20021;-56
2023/05/11 06:51:11;;;;;;;20.00;13.35;;;;;;;14.42;73.82;101639.66;7392743;19;20035;-57
2023/05/11 06:53:38;;;;;;;20.58;13.57;;;;;;;14.38;73.97;101639.03;7395135;19;20029;-56
2023/05/11 06:56:06;;;;;;;18.77;12.68;;;;;;;14.41;74.09;101636.16;7393129;19;20386;-55
2023/05/11 06:58:33;;;;;;;19.17;13.55;;;;;;;14.50;73.94;101642.63;7391776;19;20429;-57
2023/05/11 07:01:01;;;;;;;17.02;11.30;;;;;;;14.53;73.57;101643.25;7393670;19;20023;-56
2023/05/11 07:03:28;;;;;;;17.63;11.95;;;;;;;14.49;73.65;101640.91;7393820;19;20092;-57
2023/05/11 07:05:55;;;;;;;18.63;12.80;;;;;;;14.56;73.38;101650.16;7393217;19;20011;-59
2023/05/11 07:08:22;;;;;;;20.63;12.60;;;;;;;14.57;73.33;101647.38;7391366;19;20019;-56
2023/05/11 07:10:49;;;;;;;19.45;12.63;;;;;;;14.59;73.07;101641.94;7391393;19;20027;-56
2023/05/11 07:13:16;;;;;;;16.98;11.50;;;;;;;14.60;73.32;101649.81;7393793;19;20043;-56
2023/05/11 07:15:43;;;;;;;18.00;12.50;;;;;;;14.63;73.29;101651.41;7391778;19;20022;-56
2023/05/11 07:18:10;;;;;;;18.20;12.55;;;;;;;14.58;73.42;101648.25;7392193;19;20022;-56
2023/05/11 07:20:39;;;;;;;17.77;12.10;;;;;;;14.59;73.28;101650.78;7392293;19;20010;-56
2023/05/11 07:23:06;;;;;;;16.55;11.77;;;;;;;14.60;73.31;101647.16;7393271;19;20029;-56
2023/05/11 07:25:33;;;;;;;18.40;12.27;;;;;;;14.65;73.10;101652.13;7392311;19;20015;-57
2023/05/11 07:28:00;;;;;;;15.90;11.20;;;;;;;14.72;73.08;101642.69;7392032;19;20046;-57
2023/05/11 07:30:27;;;;;;;17.38;12.00;;;;;;;14.78;73.02;101649.38;7391390;19;20101;-57
2023/05/11 07:32:54;;;;;;;17.90;11.25;;;;;;;14.79;72.63;101653.75;7392941;19;20113;-57
2023/05/11 07:35:22;;;;;;;17.50;11.43;;;;;;;14.78;72.55;101644.91;7390097;19;20078;-56
2023/05/11 07:37:50;;;;;;;18.58;12.05;;;;;;;14.83;72.55;101649.88;7391244;19;20018;-57
2023/05/11 07:40:17;;;;;;;18.15;12.20;;;;;;;14.95;72.12;101648.06;7390842;19;20018;-56
2023/05/11 07:42:44;;;;;;;17.90;12.02;;;;;;;14.98;71.88;101642.50;7392053;19;20524;-56
2023/05/11 07:45:11;;;;;;;17.63;11.95;;;;;;;14.98;71.87;101647.81;7391859;19;20018;-57
2023/05/11 07:47:38;;;;;;;16.98;11.18;;;;;;;14.87;71.69;101646.84;7391540;19;20021;-57
2023/05/11 07:50:06;;;;;;;16.05;10.23;;;;;;;14.92;72.04;101645.63;7390266;19;20506;-56
2023/05/11 07:52:33;;;;;;;17.95;10.98;;;;;;;14.99;71.60;101645.03;7391987;19;20029;-56
2023/05/11 07:55:00;;;;;;;18.33;12.05;;;;;;;14.99;72.23;101652.19;7391657;19;20022;-57
2023/05/11 07:57:27;;;;;;;17.63;11.27;;;;;;;15.08;71.90;101654.16;7391560;19;20042;-56
2023/05/11 07:59:54;;;;;;;14.88;10.10;;;;;;;15.10;71.79;101662.88;7390990;19;20011;-57
2023/05/11 08:02:21;;;;;;;14.70;10.35;;;;;;;15.10;71.58;101655.72;7391583;19;20019;-57
2023/05/11 08:04:49;;;;;;;15.15;9.55;;;;;;;15.04;71.44;101648.22;7390678;19;20536;-57
2023/05/11 08:07:16;;;;;;;14.93;10.07;;;;;;;15.03;71.40;101659.84;7391491;19;20026;-57
2023/05/11 08:09:43;;;;;;;16.25;10.52;;;;;;;15.03;71.47;101659.84;7390372;19;20074;-56
2023/05/11 08:12:10;;;;;;;16.98;11.48;;;;;;;15.17;71.16;101664.09;7391750;19;20030;-57
2023/05/11 08:14:37;;;;;;;16.52;10.48;;;;;;;15.20;70.81;101663.00;7389121;19;20022;-56
2023/05/11 08:17:05;;;;;;;15.75;10.38;;;;;;;15.21;70.93;101660.22;7391140;19;20532;-57
2023/05/11 08:19:32;;;;;;;17.67;11.35;;;;;;;15.24;70.90;101653.78;7389691;19;20495;-56
2023/05/11 08:22:00;;;;;;;17.17;11.32;;;;;;;15.34;70.83;101658.28;7391002;19;20022;-56
2023/05/11 08:24:27;;;;;;;18.02;11.27;;;;;;;15.40;70.95;101667.63;7390699;19;20379;-56
2023/05/11 08:26:54;;;;;;;17.10;11.95;;;;;;;15.36;70.86;101666.16;7390111;19;20380;-55
2023/05/11 08:29:21;;;;;;;17.83;11.68;;;;;;;15.35;71.35;101667.13;7389637;19;20090;-56
2023/05/11 08:31:48;;;;;;;17.13;11.30;;;;;;;15.37;71.29;101659.84;7389546;19;20035;-56
2023/05/11 08:34:15;;;;;;;17.48;11.57;;;;;;;15.47;71.39;101665.31;7391301;19;20059;-57
2023/05/11 08:36:46;;;;;;;17.70;11.27;;;;;;;15.54;70.81;101662.03;7390355;19;20031;-57
2023/05/11 08:39:14;;;;;;;17.13;11.30;;;;;;;15.58;70.49;101655.47;7390189;19;20018;-57
2023/05/11 08:41:56;;;;;;;19.20;12.23;;;;;;;15.67;70.00;101655.72;7391123;19;20014;-56
2023/05/11 08:44:25;;;;;;;16.25;10.77;;;;;;;15.70;70.19;101663.50;7390206;19;20022;-56
2023/05/11 08:46:52;;;;;;;15.95;10.20;;;;;;;15.78;69.78;101658.38;7389351;19;20022;-56
2023/05/11 08:49:39;;;;;;;15.77;10.60;;;;;;;15.83;69.40;101670.41;7387549;19;20026;-57
2023/05/11 08:52:07;;;;;;;16.35;11.23;;;;;;;15.67;69.32;101672.59;7390148;19;20015;-56
2023/05/11 08:54:34;;;;;;;16.20;10.65;;;;;;;15.63;69.85;101671.13;7390061;19;20019;-56
2023/05/11 08:57:02;;;;;;;17.38;11.50;;;;;;;15.76;69.89;101668.34;7389485;19;20021;-54
2023/05/11 08:59:29;;;;;;;16.80;11.13;;;;;;;15.81;70.04;101668.81;7389477;19;20022;-57
2023/05/11 09:02:03;;;;;;;15.90;10.18;;;;;;;15.97;69.29;101674.59;7388732;19;20210;-55
2023/05/11 09:04:31;;;;;;;15.02;10.30;;;;;;;16.09;68.68;101673.59;7389847;19;20014;-57
2023/05/11 09:06:58;;;;;;;16.73;10.73;;;;;;;16.04;68.72;101673.13;7389622;19;20029;-56
2023/05/11 09:09:26;;;;;;;18.30;11.85;;;;;;;16.06;68.34;101675.66;7388771;19;20014;-56
2023/05/11 09:11:54;;;;;;;16.63;10.63;;;;;;;16.08;68.41;101679.06;7389456;19;20113;-56
2023/05/11 09:14:21;;;;;;;19.20;13.10;;;;;;;16.11;68.36;101677.97;7389131;19;20484;-57
2023/05/11 09:16:52;;;;;;;18.55;11.82;;;;;;;16.12;68.65;101677.00;7388979;19;20042;-56
2023/05/11 09:19:20;;;;;;;18.80;11.82;;;;;;;16.07;68.80;101675.56;7389094;19;20018;-56
2023/05/11 09:21:47;;;;;;;15.93;10.23;;;;;;;16.06;68.66;101673.00;7389367;19;20038;-56
2023/05/11 09:24:14;;;;;;;18.83;12.25;;;;;;;16.17;68.76;101672.97;7389211;19;20018;-56
2023/05/11 09:26:41;;;;;;;19.23;12.02;;;;;;;16.25;68.94;101677.66;7395575;19;20031;-56
2023/05/11 09:29:08;;;;;;;16.40;10.60;;;;;;;16.31;68.63;101677.16;7392538;19;20011;-55
2023/05/11 09:31:41;;;;;;;16.45;10.88;;;;;;;16.31;68.49;101675.34;7394769;19;20063;-56
2023/05/11 09:34:19;;;;;;;17.67;11.23;;;;;;;16.40;68.74;101672.88;7394415;19;20086;-55
2023/05/11 09:36:49;;;;;;;18.77;11.05;;;;;;;16.43;68.63;101673.47;7395337;19;20421;-55
2023/05/11 09:39:18;;;;;;;18.10;10.60;;;;;;;16.51;68.07;101676.34;7395465;19;20029;-55
2023/05/11 09:42:20;;;;;;;17.23;10.95;;;;;;;16.59;67.06;101681.03;7396951;19;20046;-57
2023/05/11 09:44:47;;;;;;;15.02;9.43;;;;;;;16.55;67.27;101675.09;7395485;19;20019;-57
2023/05/11 09:47:21;;;;;;;17.25;10.60;;;;;;;16.67;67.12;101675.03;7395397;19;20015;-57
2023/05/11 09:49:48;;;;;;;;;;;;;;;16.58;67.09;101672.19;7394991;19;20014;-56
2023/05/11 09:52:17;;;;;;;15.10;9.85;;;;;;;16.53;67.82;101676.22;7396816;19;19918;-56
2023/05/11 09:54:50;;;;;;;15.63;9.82;;;;;;;16.55;67.40;101676.94;7395445;19;20026;-56
2023/05/11 09:57:30;;;;;;;15.13;9.27;;;;;;;16.59;67.32;101678.38;7396576;19;20025;-55
2023/05/11 09:59:58;;;;;;;14.93;9.50;;;;;;;16.55;67.28;101675.09;7394647;19;20039;-52
2023/05/11 10:02:30;;;;;;;15.88;9.68;;;;;;;16.63;67.21;101676.28;7396197;19;20092;-54
2023/05/11 10:05:00;;;;;;;15.30;9.93;;;;;;;16.58;67.60;101680.19;7394702;19;20051;-55
2023/05/11 10:07:28;;;;;;;16.00;9.52;;;;;;;16.51;67.91;101678.16;7394562;19;20433;-56
2023/05/11 10:09:58;;;;;;;16.02;9.30;;;;;;;16.58;67.67;101674.00;7394061;19;20022;-56
2023/05/11 10:12:26;;;;;;;14.13;8.18;;;;;;;16.64;67.61;101665.47;7395617;19;20022;-57
2023/05/11 10:15:00;;;;;;;15.02;8.95;;;;;;;16.70;67.79;101672.97;7394860;19;20022;-56
2023/05/11 10:17:29;;;;;;;14.23;8.82;;;;;;;16.74;67.84;101670.91;7394770;19;20022;-56
2023/05/11 10:19:57;;;;;;;15.43;8.88;;;;;;;16.70;67.84;101666.78;7394724;19;20015;-56
2023/05/11 10:22:26;;;;;;;15.02;8.32;;;;;;;16.65;68.06;101667.16;7394933;19;20082;-57
2023/05/11 10:24:55;;;;;;;13.25;7.97;;;;;;;16.60;68.14;101665.84;7394126;19;20014;-56
2023/05/11 10:27:23;;;;;;;12.85;8.27;;;;;;;16.63;67.72;101668.25;7394683;19;20025;-55
2023/05/11 10:29:50;;;;;;;15.02;9.00;;;;;;;16.69;68.04;101663.25;7393909;19;20018;-56
2023/05/11 10:32:19;;;;;;;15.50;7.95;;;;;;;16.72;67.71;101668.34;7394751;19;20195;-56
2023/05/11 10:34:47;;;;;;;14.85;8.27;;;;;;;16.85;67.65;101665.50;7394489;19;20024;-55
2023/05/11 10:37:15;;;;;;;15.68;9.25;;;;;;;16.88;67.00;101659.88;7391772;19;20019;-55
2023/05/11 10:39:44;;;;;;;14.20;8.68;;;;;;;16.84;67.32;101665.63;7394451;19;20099;-54
2023/05/11 10:42:32;;;;;;;13.57;8.68;;;;;;;16.94;67.00;101663.84;7394683;19;20021;-55
2023/05/11 10:45:09;;;;;;;;;;;;;;;16.85;67.90;101664.66;7394865;19;20018;-55
2023/05/11 10:48:09;;;;;;;13.13;7.63;;;;;;;17.00;67.08;101661.50;7392946;19;19922;-54
2023/05/11 10:50:57;;;;;;;13.60;8.25;;;;;;;17.03;65.90;101663.06;7390200;19;20026;-56
2023/05/11 10:53:49;;;;;;;14.15;8.18;;;;;;;16.97;65.95;101664.44;7393843;19;20021;-55
2023/05/11 10:56:44;;;;;;;13.35;7.57;;;;;;;16.86;66.51;101667.19;7393039;19;20036;-56
2023/05/11 10:59:42;;;;;;;13.65;7.30;;;;;;;16.77;65.66;101668.81;7393019;19;20090;-55
2023/05/11 11:02:10;;;;;;;12.85;7.55;;;;;;;16.72;66.39;101664.81;7394279;19;20080;-56
2023/05/11 11:04:46;;;;;;;13.38;7.68;;;;;;;16.95;65.93;101660.22;7392720;19;20020;-55
2023/05/11 11:07:17;;;;;;;13.07;7.60;;;;;;;17.08;65.67;101666.19;7393508;19;20063;-56
2023/05/11 11:09:56;;;;;;;11.07;6.78;;;;;;;17.05;65.63;101655.75;7391411;19;20014;-55
2023/05/11 11:12:26;;;;;;;13.98;7.47;;;;;;;17.00;65.90;101661.50;7393378;19;20030;-55
2023/05/11 11:15:00;;;;;;;12.10;6.80;;;;;;;17.07;65.97;101656.47;7392451;19;20100;-55
2023/05/11 11:17:30;;;;;;;11.35;6.25;;;;;;;17.14;65.39;101660.31;7393013;19;20030;-54
2023/05/11 11:20:03;;;;;;;12.15;6.82;;;;;;;17.22;65.16;101657.81;7392187;19;20018;-54
2023/05/11 11:22:33;;;;;;;12.30;6.65;;;;;;;17.39;64.80;101668.88;7391332;19;20019;-55